createdAt,value
2023-11-21T07:01:01.867Z,49.83
2023-11-21T07:04:05.182Z,30.77
2023-11-21T07:07:08.418Z,36.93
2023-11-21T07:10:11.260Z,34.95
2023-11-21T07:13:13.684Z,30.08
2023-11-21T07:16:17.979Z,32.80
2023-11-21T07:22:23.639Z,65.30
2023-11-21T07:25:26.134Z,43.83
2023-11-21T07:28:28.888Z,47.65
2023-11-21T07:31:35.498Z,37.22
2023-11-21T07:34:38.382Z,40.28
2023-11-21T07:37:40.912Z,27.65
2023-11-21T07:40:43.700Z,26.10
2023-11-21T07:43:46.409Z,27.50
2023-11-21T07:46:53.143Z,20.17
2023-11-21T07:49:57.260Z,28.25
2023-11-21T07:53:00.713Z,21.50
2023-11-21T07:56:04.343Z,24.27
2023-11-21T07:59:07.065Z,16.92
2023-11-21T08:02:10.944Z,34.00
2023-11-21T08:05:18.959Z,26.67
2023-11-21T08:08:28.670Z,48.42
2023-11-21T08:14:40.023Z,46.33
2023-11-21T08:17:44.580Z,36.30
2023-11-21T08:20:48.719Z,34.58
2023-11-21T08:23:55.407Z,50.92
2023-11-21T08:26:58.020Z,29.42
2023-11-21T08:30:01.143Z,34.33
2023-11-21T08:33:05.082Z,24.33
2023-11-21T08:36:08.820Z,20.95
2023-11-21T08:39:11.383Z,38.67
2023-11-21T08:42:14.266Z,38.17
2023-11-21T08:45:18.500Z,38.38
2023-11-21T08:48:22.703Z,35.60
2023-11-21T08:54:27.606Z,37.75
2023-11-21T08:57:30.963Z,38.63
2023-11-21T09:00:34.153Z,54.30
2023-11-21T09:03:38.595Z,46.70
2023-11-21T09:06:41.452Z,59.67
2023-11-21T09:09:43.922Z,49.83
2023-11-21T09:12:46.713Z,50.30
2023-11-21T09:15:50.956Z,48.42
2023-11-21T09:18:55.062Z,34.63
2023-11-21T09:21:58.397Z,25.95
2023-11-21T09:25:01.084Z,51.17
2023-11-21T09:28:06.094Z,24.17
2023-11-21T09:31:10.572Z,24.05
2023-11-21T09:34:17.967Z,27.23
2023-11-21T09:37:20.796Z,32.15
2023-11-21T09:40:23.824Z,41.17
2023-11-21T09:43:28.702Z,23.90
2023-11-21T09:46:31.850Z,24.08
2023-11-21T09:49:35.980Z,17.10
2023-11-21T09:52:42.352Z,14.32
2023-11-21T09:55:46.188Z,18.85
2023-11-21T09:58:48.757Z,23.90
2023-11-21T10:01:53.185Z,19.58
2023-11-21T10:04:57.937Z,28.07
2023-11-21T10:08:00.507Z,26.80
2023-11-21T10:11:03.606Z,23.00
2023-11-21T10:14:06.131Z,26.95
2023-11-21T10:17:10.401Z,23.58
2023-11-21T10:20:14.674Z,19.80
2023-11-21T10:23:17.437Z,25.02
2023-11-21T10:26:29.282Z,24.42
2023-11-21T10:29:36.737Z,21.45
2023-11-21T10:32:39.305Z,19.23
2023-11-21T10:35:52.032Z,24.33
2023-11-21T10:38:54.663Z,37.65
2023-11-21T10:41:57.517Z,37.15
2023-11-21T10:45:01.785Z,45.22
2023-11-21T10:48:06.484Z,50.00
2023-11-21T10:51:13.415Z,39.17
2023-11-21T10:54:19.032Z,30.67
2023-11-21T10:57:23.072Z,28.33
2023-11-21T11:00:25.942Z,25.25
2023-11-21T11:03:28.506Z,26.92
2023-11-21T11:06:33.917Z,20.40
2023-11-21T11:09:36.482Z,24.27
2023-11-21T11:12:39.608Z,21.37
2023-11-21T11:15:42.320Z,29.73
2023-11-21T11:18:46.123Z,25.00
2023-11-21T11:21:55.013Z,24.27
2023-11-21T11:25:20.056Z,36.80
2023-11-21T11:28:23.005Z,31.42
2023-11-21T11:31:28.752Z,32.97
2023-11-21T11:34:32.921Z,29.35
2023-11-21T11:37:37.222Z,26.15
2023-11-21T11:43:45.884Z,37.67
2023-11-21T11:46:48.688Z,18.35
2023-11-21T11:50:20.969Z,35.27
2023-11-21T11:53:24.890Z,19.75
2023-11-21T11:56:29.508Z,19.42
2023-11-21T11:59:31.917Z,30.92
2023-11-21T12:02:34.737Z,18.45
2023-11-21T12:05:40.278Z,22.57
2023-11-21T12:08:45.726Z,22.60
2023-11-21T12:11:48.526Z,26.40
2023-11-21T12:14:50.996Z,26.15
2023-11-21T12:17:53.740Z,22.52
2023-11-21T12:20:56.388Z,36.83
2023-11-21T12:24:01.296Z,20.83
2023-11-21T12:27:04.279Z,19.25
2023-11-21T12:30:14.284Z,38.28
2023-11-21T12:33:18.821Z,17.75
2023-11-21T12:36:22.676Z,19.58
2023-11-21T12:39:26.480Z,14.50
2023-11-21T12:42:31.985Z,24.30
2023-11-21T12:45:35.110Z,28.85
2023-11-21T12:48:38.635Z,31.15
2023-11-21T12:51:41.066Z,31.17
2023-11-21T12:54:45.134Z,30.95
2023-11-21T12:57:51.035Z,36.47
2023-11-21T13:00:55.176Z,30.60
2023-11-21T13:07:07.792Z,27.85
2023-11-21T13:10:11.688Z,22.65
2023-11-21T13:13:19.821Z,29.12
2023-11-21T13:16:24.992Z,23.50
2023-11-21T13:19:30.853Z,39.42
2023-11-21T13:22:34.241Z,27.20
2023-11-21T13:25:38.850Z,22.08
2023-11-21T13:28:46.907Z,25.95
2023-11-21T13:31:51.909Z,44.17
2023-11-21T13:34:55.402Z,29.00
2023-11-21T13:38:00.964Z,19.25
2023-11-21T13:41:08.615Z,25.15
2023-11-21T13:44:27.312Z,27.20
2023-11-21T13:47:32.179Z,21.15
2023-11-21T13:50:35.015Z,19.77
2023-11-21T13:53:38.822Z,23.15
2023-11-21T13:56:46.262Z,23.05
2023-11-21T13:59:50.219Z,19.77
2023-11-21T14:05:57.584Z,18.55
2023-11-21T14:09:01.775Z,13.90
2023-11-21T14:12:08.953Z,11.43
2023-11-21T14:15:13.400Z,17.60
2023-11-21T14:18:18.248Z,18.27
2023-11-21T14:21:20.735Z,19.98
2023-11-21T14:24:25.214Z,25.95
2023-11-21T14:27:29.946Z,69.43
2023-11-21T14:30:37.197Z,45.05
2023-11-21T14:33:39.620Z,29.12
2023-11-21T14:36:44.107Z,31.45
2023-11-21T14:39:49.878Z,24.20
2023-11-21T14:42:55.468Z,16.45
2023-11-21T14:45:58.574Z,34.00
2023-11-21T14:49:15.699Z,33.47
2023-11-21T14:52:35.038Z,24.23
2023-11-21T14:55:53.349Z,30.00
2023-11-21T14:58:57.817Z,22.55
2023-11-21T15:02:10.943Z,22.92
2023-11-21T15:05:17.721Z,26.62
2023-11-21T15:08:31.480Z,21.62
2023-11-21T15:11:34.289Z,27.35
2023-11-21T15:14:38.485Z,18.00
2023-11-21T15:17:43.997Z,38.58
2023-11-21T15:20:47.030Z,104.57
2023-11-21T15:23:49.608Z,68.57
2023-11-21T15:26:52.365Z,76.95
2023-11-21T15:29:56.224Z,63.65
2023-11-21T15:32:59.292Z,52.85
2023-11-21T15:36:01.823Z,58.20
2023-11-21T15:39:04.608Z,71.37
2023-11-21T15:42:11.210Z,41.42
2023-11-21T15:45:16.192Z,25.35
2023-11-21T15:48:19.098Z,43.83
2023-11-21T15:51:21.847Z,33.15
2023-11-21T15:54:25.833Z,32.95
2023-11-21T15:57:28.650Z,40.00
2023-11-21T16:00:32.502Z,41.30
2023-11-21T16:03:35.426Z,35.08
2023-11-21T16:06:40.459Z,84.20
2023-11-21T16:09:44.265Z,43.83
2023-11-21T16:12:47.535Z,44.42
2023-11-21T16:15:52.347Z,49.70
2023-11-21T16:18:54.960Z,48.42
2023-11-21T16:21:57.688Z,61.20
2023-11-21T16:25:01.357Z,61.67
2023-11-21T16:31:11.366Z,62.75
2023-11-21T16:34:19.580Z,44.08
2023-11-21T16:37:22.634Z,46.15
2023-11-21T16:40:25.765Z,47.53
2023-11-21T16:43:28.229Z,47.85
2023-11-21T16:46:32.337Z,49.50
2023-11-21T16:52:39.420Z,49.83
2023-11-21T16:55:41.859Z,48.72
2023-11-21T16:58:45.007Z,49.75
